sensor_id;sensor_type;location;lat;lon;timestamp;temperature;humidity
8269;DHT22;4174;48.304;16.364;2022-12-18T00:02:16;0.90;99.90
8269;DHT22;4174;48.304;16.364;2022-12-18T00:08:20;0.70;99.90
8269;DHT22;4174;48.304;16.364;2022-12-18T00:14:24;0.70;99.90
8269;DHT22;4174;48.304;16.364;2022-12-18T00:20:28;0.50;99.90
8269;DHT22;4174;48.304;16.364;2022-12-18T00:26:32;0.40;99.90
8269;DHT22;4174;48.304;16.364;2022-12-18T00:32:34;0.40;99.90
8269;DHT22;4174;48.304;16.364;2022-12-18T00:38:38;0.20;99.90
8269;DHT22;4174;48.304;16.364;2022-12-18T00:44:42;0.20;99.90
8269;DHT22;4174;48.304;16.364;2022-12-18T00:50:47;0.10;99.90
8269;DHT22;4174;48.304;16.364;2022-12-18T00:56:50;0.00;99.90
8269;DHT22;4174;48.304;16.364;2022-12-18T01:02:53;-0.10;99.90
8269;DHT22;4174;48.304;16.364;2022-12-18T01:08:57;0.00;99.90
8269;DHT22;4174;48.304;16.364;2022-12-18T01:15:00;-0.10;99.90
8269;DHT22;4174;48.304;16.364;2022-12-18T01:21:08;-0.10;99.90
8269;DHT22;4174;48.304;16.364;2022-12-18T01:27:11;-0.20;99.90
8269;DHT22;4174;48.304;16.364;2022-12-18T01:33:15;-0.30;99.90
8269;DHT22;4174;48.304;16.364;2022-12-18T01:39:20;-0.40;99.90
8269;DHT22;4174;48.304;16.364;2022-12-18T01:45:24;-0.60;99.90
8269;DHT22;4174;48.304;16.364;2022-12-18T01:51:27;-0.70;99.90
8269;DHT22;4174;48.304;16.364;2022-12-18T01:57:29;-0.90;99.90
8269;DHT22;4174;48.304;16.364;2022-12-18T02:03:32;-0.90;99.90
8269;DHT22;4174;48.304;16.364;2022-12-18T02:16:03;-1.10;99.90
8269;DHT22;4174;48.304;16.364;2022-12-18T02:22:13;-1.20;99.90
8269;DHT22;4174;48.304;16.364;2022-12-18T02:28:14;-1.30;99.90
8269;DHT22;4174;48.304;16.364;2022-12-18T02:34:16;-1.30;99.90
8269;DHT22;4174;48.304;16.364;2022-12-18T02:40:20;-1.40;99.90
8269;DHT22;4174;48.304;16.364;2022-12-18T02:46:28;-1.50;99.90
8269;DHT22;4174;48.304;16.364;2022-12-18T02:52:53;-1.50;99.90
8269;DHT22;4174;48.304;16.364;2022-12-18T02:59:02;-1.50;99.90
8269;DHT22;4174;48.304;16.364;2022-12-18T03:05:09;-1.50;99.90
8269;DHT22;4174;48.304;16.364;2022-12-18T03:11:12;-1.60;99.90
8269;DHT22;4174;48.304;16.364;2022-12-18T03:17:14;-1.60;99.90
8269;DHT22;4174;48.304;16.364;2022-12-18T03:23:18;-1.70;99.90
8269;DHT22;4174;48.304;16.364;2022-12-18T03:29:22;-1.70;99.90
8269;DHT22;4174;48.304;16.364;2022-12-18T03:35:26;-1.80;99.90
8269;DHT22;4174;48.304;16.364;2022-12-18T03:41:33;-1.80;99.90
8269;DHT22;4174;48.304;16.364;2022-12-18T03:47:41;-1.70;99.90
8269;DHT22;4174;48.304;16.364;2022-12-18T03:53:46;-1.90;99.90
8269;DHT22;4174;48.304;16.364;2022-12-18T03:59:54;-1.90;99.90
8269;DHT22;4174;48.304;16.364;2022-12-18T04:05:57;-2.00;99.90
8269;DHT22;4174;48.304;16.364;2022-12-18T04:12:00;-2.00;99.90
8269;DHT22;4174;48.304;16.364;2022-12-18T04:18:05;-2.10;99.90
8269;DHT22;4174;48.304;16.364;2022-12-18T04:24:09;-2.10;99.90
8269;DHT22;4174;48.304;16.364;2022-12-18T04:30:13;-2.20;99.90
8269;DHT22;4174;48.304;16.364;2022-12-18T04:36:17;-2.20;99.90
8269;DHT22;4174;48.304;16.364;2022-12-18T04:42:22;-2.30;99.90
8269;DHT22;4174;48.304;16.364;2022-12-18T04:48:25;-2.40;99.90
8269;DHT22;4174;48.304;16.364;2022-12-18T04:54:29;-2.50;99.90
8269;DHT22;4174;48.304;16.364;2022-12-18T05:00:33;-2.40;99.90
8269;DHT22;4174;48.304;16.364;2022-12-18T05:06:37;-2.50;99.90
8269;DHT22;4174;48.304;16.364;2022-12-18T05:12:40;-2.50;99.90
8269;DHT22;4174;48.304;16.364;2022-12-18T05:18:50;-2.50;99.90
8269;DHT22;4174;48.304;16.364;2022-12-18T05:24:53;-2.60;99.90
8269;DHT22;4174;48.304;16.364;2022-12-18T05:30:58;-2.60;99.90
8269;DHT22;4174;48.304;16.364;2022-12-18T05:36:59;-2.60;99.90
8269;DHT22;4174;48.304;16.364;2022-12-18T05:43:05;-2.70;99.90
8269;DHT22;4174;48.304;16.364;2022-12-18T05:49:09;-2.70;99.90
8269;DHT22;4174;48.304;16.364;2022-12-18T05:55:14;-2.70;99.90
8269;DHT22;4174;48.304;16.364;2022-12-18T06:01:18;-2.80;99.90
8269;DHT22;4174;48.304;16.364;2022-12-18T06:07:20;-2.80;99.90
8269;DHT22;4174;48.304;16.364;2022-12-18T06:13:24;-2.80;99.90
8269;DHT22;4174;48.304;16.364;2022-12-18T06:19:27;-2.80;99.90
8269;DHT22;4174;48.304;16.364;2022-12-18T06:25:31;-2.90;99.90
8269;DHT22;4174;48.304;16.364;2022-12-18T06:31:34;-2.90;99.90
8269;DHT22;4174;48.304;16.364;2022-12-18T06:37:39;-3.00;99.90
8269;DHT22;4174;48.304;16.364;2022-12-18T06:43:42;-3.00;99.90
8269;DHT22;4174;48.304;16.364;2022-12-18T06:49:47;-3.00;99.90
8269;DHT22;4174;48.304;16.364;2022-12-18T06:55:50;-2.90;99.90
8269;DHT22;4174;48.304;16.364;2022-12-18T07:01:54;-3.00;99.90
8269;DHT22;4174;48.304;16.364;2022-12-18T07:07:57;-3.10;99.90
8269;DHT22;4174;48.304;16.364;2022-12-18T07:14:00;-3.10;99.90
8269;DHT22;4174;48.304;16.364;2022-12-18T07:20:05;-2.90;99.90
8269;DHT22;4174;48.304;16.364;2022-12-18T07:26:11;-2.80;99.90
8269;DHT22;4174;48.304;16.364;2022-12-18T07:32:13;-2.80;99.90
8269;DHT22;4174;48.304;16.364;2022-12-18T07:38:17;-2.50;99.90
8269;DHT22;4174;48.304;16.364;2022-12-18T07:44:21;-2.50;99.90
8269;DHT22;4174;48.304;16.364;2022-12-18T07:50:25;-2.30;99.90
8269;DHT22;4174;48.304;16.364;2022-12-18T07:56:29;-1.70;99.90
8269;DHT22;4174;48.304;16.364;2022-12-18T08:02:33;-1.40;99.90
8269;DHT22;4174;48.304;16.364;2022-12-18T08:08:36;-0.70;99.90
8269;DHT22;4174;48.304;16.364;2022-12-18T08:14:40;-0.10;99.90
8269;DHT22;4174;48.304;16.364;2022-12-18T08:20:45;0.20;99.90
8269;DHT22;4174;48.304;16.364;2022-12-18T08:26:49;0.20;99.90
8269;DHT22;4174;48.304;16.364;2022-12-18T08:32:53;0.60;99.90
8269;DHT22;4174;48.304;16.364;2022-12-18T08:38:56;0.50;99.90
8269;DHT22;4174;48.304;16.364;2022-12-18T08:44:59;0.30;99.90
8269;DHT22;4174;48.304;16.364;2022-12-18T08:51:04;0.30;99.90
8269;DHT22;4174;48.304;16.364;2022-12-18T08:57:07;0.50;99.90
8269;DHT22;4174;48.304;16.364;2022-12-18T09:03:12;0.50;99.90
8269;DHT22;4174;48.304;16.364;2022-12-18T09:09:16;0.30;99.90
8269;DHT22;4174;48.304;16.364;2022-12-18T09:15:21;0.30;99.90
8269;DHT22;4174;48.304;16.364;2022-12-18T09:21:27;0.30;99.90
8269;DHT22;4174;48.304;16.364;2022-12-18T09:27:29;0.40;99.90
8269;DHT22;4174;48.304;16.364;2022-12-18T09:33:35;0.40;99.90
8269;DHT22;4174;48.304;16.364;2022-12-18T09:39:40;0.60;99.90
8269;DHT22;4174;48.304;16.364;2022-12-18T09:45:49;0.60;99.90
8269;DHT22;4174;48.304;16.364;2022-12-18T09:51:55;0.90;99.90
8269;DHT22;4174;48.304;16.364;2022-12-18T09:58:16;0.90;99.90
8269;DHT22;4174;48.304;16.364;2022-12-18T10:04:18;1.20;99.90
8269;DHT22;4174;48.304;16.364;2022-12-18T10:10:57;0.80;99.90
8269;DHT22;4174;48.304;16.364;2022-12-18T10:23:03;1.10;99.90
8269;DHT22;4174;48.304;16.364;2022-12-18T10:29:12;1.10;99.90
8269;DHT22;4174;48.304;16.364;2022-12-18T10:35:19;1.20;99.90
8269;DHT22;4174;48.304;16.364;2022-12-18T10:41:25;1.00;99.90
8269;DHT22;4174;48.304;16.364;2022-12-18T10:47:25;1.00;99.90
8269;DHT22;4174;48.304;16.364;2022-12-18T10:53:30;1.00;99.90
8269;DHT22;4174;48.304;16.364;2022-12-18T10:59:35;0.90;99.90
8269;DHT22;4174;48.304;16.364;2022-12-18T11:05:37;0.90;99.90
8269;DHT22;4174;48.304;16.364;2022-12-18T11:11:41;0.70;99.90
8269;DHT22;4174;48.304;16.364;2022-12-18T11:17:44;0.00;99.90
8269;DHT22;4174;48.304;16.364;2022-12-18T11:23:50;-0.50;99.90
8269;DHT22;4174;48.304;16.364;2022-12-18T11:30:06;-0.30;99.90
8269;DHT22;4174;48.304;16.364;2022-12-18T11:35:56;0.10;99.90
8269;DHT22;4174;48.304;16.364;2022-12-18T11:42:01;0.40;99.90
8269;DHT22;4174;48.304;16.364;2022-12-18T11:48:14;0.30;99.90
8269;DHT22;4174;48.304;16.364;2022-12-18T11:54:15;0.50;99.90
8269;DHT22;4174;48.304;16.364;2022-12-18T12:00:19;0.80;99.90
8269;DHT22;4174;48.304;16.364;2022-12-18T12:06:46;0.40;99.90
8269;DHT22;4174;48.304;16.364;2022-12-18T12:19:21;0.20;99.90
8269;DHT22;4174;48.304;16.364;2022-12-18T12:25:37;0.30;99.90
8269;DHT22;4174;48.304;16.364;2022-12-18T12:32:22;0.10;99.90
8269;DHT22;4174;48.304;16.364;2022-12-18T12:38:31;0.10;99.90
8269;DHT22;4174;48.304;16.364;2022-12-18T12:44:33;0.00;99.90
8269;DHT22;4174;48.304;16.364;2022-12-18T12:50:35;0.00;99.90
8269;DHT22;4174;48.304;16.364;2022-12-18T13:03:08;-0.30;99.90
8269;DHT22;4174;48.304;16.364;2022-12-18T13:09:15;-0.60;99.90
8269;DHT22;4174;48.304;16.364;2022-12-18T13:15:33;-0.30;99.90
8269;DHT22;4174;48.304;16.364;2022-12-18T13:21:39;0.20;99.90
8269;DHT22;4174;48.304;16.364;2022-12-18T13:28:03;0.20;99.90
8269;DHT22;4174;48.304;16.364;2022-12-18T13:34:21;0.60;99.90
8269;DHT22;4174;48.304;16.364;2022-12-18T13:46:55;0.60;99.90
8269;DHT22;4174;48.304;16.364;2022-12-18T13:52:59;0.40;99.90
8269;DHT22;4174;48.304;16.364;2022-12-18T13:59:09;0.60;99.90
8269;DHT22;4174;48.304;16.364;2022-12-18T14:05:23;0.60;99.90
8269;DHT22;4174;48.304;16.364;2022-12-18T14:11:26;0.50;99.90
8269;DHT22;4174;48.304;16.364;2022-12-18T14:17:30;0.40;99.90
8269;DHT22;4174;48.304;16.364;2022-12-18T14:23:38;0.20;99.90
8269;DHT22;4174;48.304;16.364;2022-12-18T14:29:39;0.50;99.90
8269;DHT22;4174;48.304;16.364;2022-12-18T14:41:57;0.60;99.90
8269;DHT22;4174;48.304;16.364;2022-12-18T14:48:01;0.40;99.90
8269;DHT22;4174;48.304;16.364;2022-12-18T14:54:05;0.40;99.90
8269;DHT22;4174;48.304;16.364;2022-12-18T15:00:14;0.30;99.90
8269;DHT22;4174;48.304;16.364;2022-12-18T15:06:34;0.20;99.90
8269;DHT22;4174;48.304;16.364;2022-12-18T15:19:15;0.00;99.90
8269;DHT22;4174;48.304;16.364;2022-12-18T15:25:25;0.00;99.90
8269;DHT22;4174;48.304;16.364;2022-12-18T15:31:29;-0.10;99.90
8269;DHT22;4174;48.304;16.364;2022-12-18T15:37:31;-0.10;99.90
8269;DHT22;4174;48.304;16.364;2022-12-18T15:43:34;0.00;99.90
8269;DHT22;4174;48.304;16.364;2022-12-18T15:49:38;-0.20;99.90
8269;DHT22;4174;48.304;16.364;2022-12-18T15:55:41;-0.10;99.90
8269;DHT22;4174;48.304;16.364;2022-12-18T16:01:50;-0.10;99.90
8269;DHT22;4174;48.304;16.364;2022-12-18T16:07:52;0.00;99.90
8269;DHT22;4174;48.304;16.364;2022-12-18T16:13:57;0.10;99.90
8269;DHT22;4174;48.304;16.364;2022-12-18T16:20:00;0.00;99.90
8269;DHT22;4174;48.304;16.364;2022-12-18T16:26:04;0.10;99.90
8269;DHT22;4174;48.304;16.364;2022-12-18T16:32:09;0.00;99.90
8269;DHT22;4174;48.304;16.364;2022-12-18T16:38:11;0.00;99.90
8269;DHT22;4174;48.304;16.364;2022-12-18T16:44:15;-0.30;99.90
8269;DHT22;4174;48.304;16.364;2022-12-18T16:50:18;-0.30;99.90
8269;DHT22;4174;48.304;16.364;2022-12-18T16:56:22;-0.30;99.90
8269;DHT22;4174;48.304;16.364;2022-12-18T17:02:25;-0.40;99.90
8269;DHT22;4174;48.304;16.364;2022-12-18T17:08:29;-0.70;99.90
8269;DHT22;4174;48.304;16.364;2022-12-18T17:14:32;-0.70;99.90
8269;DHT22;4174;48.304;16.364;2022-12-18T17:20:35;-0.80;99.90
8269;DHT22;4174;48.304;16.364;2022-12-18T17:26:39;-0.70;99.90
8269;DHT22;4174;48.304;16.364;2022-12-18T17:32:44;-0.70;99.90
8269;DHT22;4174;48.304;16.364;2022-12-18T17:38:51;-0.50;99.90
8269;DHT22;4174;48.304;16.364;2022-12-18T17:44:53;-0.50;99.90
8269;DHT22;4174;48.304;16.364;2022-12-18T17:51:01;-0.60;99.90
8269;DHT22;4174;48.304;16.364;2022-12-18T17:57:04;-0.50;99.90
8269;DHT22;4174;48.304;16.364;2022-12-18T18:03:07;-0.40;99.90
8269;DHT22;4174;48.304;16.364;2022-12-18T18:09:10;-0.50;99.90
8269;DHT22;4174;48.304;16.364;2022-12-18T18:15:13;-0.60;99.90
8269;DHT22;4174;48.304;16.364;2022-12-18T18:21:18;-0.50;99.90
8269;DHT22;4174;48.304;16.364;2022-12-18T18:27:22;-0.50;99.90
8269;DHT22;4174;48.304;16.364;2022-12-18T18:33:26;-0.50;99.90
8269;DHT22;4174;48.304;16.364;2022-12-18T18:39:30;-0.50;99.90
8269;DHT22;4174;48.304;16.364;2022-12-18T18:45:34;-0.60;99.90
8269;DHT22;4174;48.304;16.364;2022-12-18T18:51:39;-0.60;99.90
8269;DHT22;4174;48.304;16.364;2022-12-18T18:57:42;-0.50;99.90
8269;DHT22;4174;48.304;16.364;2022-12-18T19:03:46;-0.50;99.90
8269;DHT22;4174;48.304;16.364;2022-12-18T19:09:48;-0.60;99.90
8269;DHT22;4174;48.304;16.364;2022-12-18T19:15:53;-0.70;99.90
8269;DHT22;4174;48.304;16.364;2022-12-18T19:21:55;-0.30;99.90
8269;DHT22;4174;48.304;16.364;2022-12-18T19:27:58;-0.40;99.90
8269;DHT22;4174;48.304;16.364;2022-12-18T19:34:02;-0.30;99.90
8269;DHT22;4174;48.304;16.364;2022-12-18T19:40:05;-0.30;99.90
8269;DHT22;4174;48.304;16.364;2022-12-18T19:46:10;-0.50;99.90
8269;DHT22;4174;48.304;16.364;2022-12-18T19:52:15;-0.20;99.90
8269;DHT22;4174;48.304;16.364;2022-12-18T19:58:19;-0.20;99.90
8269;DHT22;4174;48.304;16.364;2022-12-18T20:04:23;0.00;99.90
8269;DHT22;4174;48.304;16.364;2022-12-18T20:10:27;0.00;99.90
8269;DHT22;4174;48.304;16.364;2022-12-18T20:16:31;-0.10;99.90
8269;DHT22;4174;48.304;16.364;2022-12-18T20:22:35;0.00;99.90
8269;DHT22;4174;48.304;16.364;2022-12-18T20:28:39;-0.10;99.90
8269;DHT22;4174;48.304;16.364;2022-12-18T20:34:44;-0.10;99.90
8269;DHT22;4174;48.304;16.364;2022-12-18T20:40:48;-0.10;99.90
8269;DHT22;4174;48.304;16.364;2022-12-18T20:46:54;-0.10;99.90
8269;DHT22;4174;48.304;16.364;2022-12-18T20:52:56;0.00;99.90
8269;DHT22;4174;48.304;16.364;2022-12-18T20:58:59;0.20;99.90
8269;DHT22;4174;48.304;16.364;2022-12-18T21:05:04;0.00;99.90
8269;DHT22;4174;48.304;16.364;2022-12-18T21:17:34;-0.10;99.90
8269;DHT22;4174;48.304;16.364;2022-12-18T21:23:38;0.00;99.90
8269;DHT22;4174;48.304;16.364;2022-12-18T21:29:42;-0.20;99.90
8269;DHT22;4174;48.304;16.364;2022-12-18T21:35:45;-0.30;99.90
8269;DHT22;4174;48.304;16.364;2022-12-18T21:41:49;-0.30;99.90
8269;DHT22;4174;48.304;16.364;2022-12-18T21:47:57;-0.30;99.90
8269;DHT22;4174;48.304;16.364;2022-12-18T21:54:02;-0.30;99.90
8269;DHT22;4174;48.304;16.364;2022-12-18T22:00:09;-0.50;99.90
8269;DHT22;4174;48.304;16.364;2022-12-18T22:06:10;-0.60;99.90
8269;DHT22;4174;48.304;16.364;2022-12-18T22:12:12;-0.80;99.90
8269;DHT22;4174;48.304;16.364;2022-12-18T22:18:16;-0.90;99.90
8269;DHT22;4174;48.304;16.364;2022-12-18T22:24:22;-1.00;99.90
8269;DHT22;4174;48.304;16.364;2022-12-18T22:30:24;-1.10;99.90
8269;DHT22;4174;48.304;16.364;2022-12-18T22:36:29;-1.20;99.90
8269;DHT22;4174;48.304;16.364;2022-12-18T22:42:30;-1.30;99.90
8269;DHT22;4174;48.304;16.364;2022-12-18T22:48:34;-1.50;99.90
8269;DHT22;4174;48.304;16.364;2022-12-18T22:54:39;-1.40;99.90
8269;DHT22;4174;48.304;16.364;2022-12-18T23:00:43;-1.50;99.90
8269;DHT22;4174;48.304;16.364;2022-12-18T23:06:47;-1.60;99.90
8269;DHT22;4174;48.304;16.364;2022-12-18T23:12:51;-1.50;99.90
8269;DHT22;4174;48.304;16.364;2022-12-18T23:18:55;-1.60;99.90
8269;DHT22;4174;48.304;16.364;2022-12-18T23:24:58;-1.50;99.90
8269;DHT22;4174;48.304;16.364;2022-12-18T23:31:08;-1.60;99.90
8269;DHT22;4174;48.304;16.364;2022-12-18T23:37:08;-1.60;99.90
8269;DHT22;4174;48.304;16.364;2022-12-18T23:43:15;-1.50;99.90
8269;DHT22;4174;48.304;16.364;2022-12-18T23:49:18;-1.50;99.90
8269;DHT22;4174;48.304;16.364;2022-12-18T23:55:23;-1.40;99.90
